Time;durP1;ratioP1;P1;durP2;ratioP2;P2;SDS_P1;SDS_P2;PMS_P1;PMS_P2;Temp;Humidity;BMP_temperature;BMP_pressure;BME280_temperature;BME280_humidity;BME280_pressure;Samples;Min_cycle;Max_cycle;Signal;HPM_P1;HPM_P2
2021/11/17 02:27:22;;;;;;;42.70;29.83;;;6.10;99.90;;;;;;5067475;28;20032;-72
2021/11/17 02:30:26;;;;;;;37.65;30.67;;;6.10;99.90;;;;;;5062473;28;20052;-71
2021/11/17 02:33:41;;;;;;;34.67;27.17;;;6.10;99.90;;;;;;5064010;28;20397;-71
2021/11/17 02:36:55;;;;;;;34.15;26.90;;;6.10;99.90;;;;;;5045391;28;20044;-71
2021/11/17 02:39:33;;;;;;;30.48;26.23;;;6.10;99.90;;;;;;5038225;28;20501;-72
2021/11/17 02:42:21;;;;;;;39.53;27.73;;;6.10;99.90;;;;;;5055017;28;20502;-71
2021/11/17 02:44:54;;;;;;;33.88;29.67;;;6.10;99.90;;;;;;5055316;28;20040;-71
2021/11/17 02:47:27;;;;;;;32.97;29.52;;;6.10;99.90;;;;;;5054889;28;20029;-75
2021/11/17 02:50:11;;;;;;;33.97;29.23;;;6.10;99.90;;;;;;5055269;28;20033;-71
2021/11/17 02:52:40;;;;;;;37.88;28.90;;;6.10;99.90;;;;;;5054448;28;20033;-71
2021/11/17 02:55:17;;;;;;;34.83;29.00;;;6.10;99.90;;;;;;5054529;28;20500;-72
2021/11/17 02:57:58;;;;;;;36.60;31.17;;;6.10;99.90;;;;;;5052137;28;20040;-71
2021/11/17 03:00:27;;;;;;;38.55;30.83;;;6.10;99.90;;;;;;5054027;28;20040;-72
2021/11/17 03:02:59;;;;;;;40.97;34.83;;;6.10;99.90;;;;;;5055230;28;20029;-71
2021/11/17 03:06:07;;;;;;;39.03;34.78;;;6.20;99.90;;;;;;5053914;28;20028;-71
2021/11/17 03:08:49;;;;;;;37.33;32.67;;;6.10;99.90;;;;;;5043964;28;20048;-72
2021/11/17 03:11:22;;;;;;;39.20;33.38;;;6.00;99.90;;;;;;5054917;28;20029;-71
2021/11/17 03:14:13;;;;;;;35.40;31.35;;;6.10;99.90;;;;;;5036321;28;20040;-71
2021/11/17 03:16:51;;;;;;;39.00;33.53;;;6.10;99.90;;;;;;5053996;28;20044;-71
2021/11/17 03:19:49;;;;;;;40.42;35.05;;;6.10;99.90;;;;;;5054203;28;20029;-71
2021/11/17 03:22:24;;;;;;;36.75;32.67;;;6.10;99.90;;;;;;5050957;28;20049;-71
2021/11/17 03:25:05;;;;;;;36.78;33.13;;;6.20;99.90;;;;;;5054286;28;20052;-71
2021/11/17 03:27:43;;;;;;;;;;;6.20;99.90;;;;;;5054342;28;20029;-72
2021/11/17 03:30:37;;;;;;;35.95;32.15;;;6.20;99.90;;;;;;5053669;28;19912;-72
2021/11/17 03:33:33;;;;;;;35.30;31.63;;;6.20;99.90;;;;;;5054544;28;20025;-71
2021/11/17 03:36:09;;;;;;;37.38;30.45;;;6.20;99.90;;;;;;5053499;28;20045;-71
2021/11/17 03:38:47;;;;;;;38.28;31.95;;;6.20;99.90;;;;;;5035924;28;20040;-71
2021/11/17 03:41:33;;;;;;;40.28;32.03;;;6.20;99.90;;;;;;5053451;28;20390;-71
2021/11/17 03:44:19;;;;;;;36.00;31.30;;;6.20;99.90;;;;;;5053665;28;20505;-71
2021/11/17 03:47:11;;;;;;;32.65;28.85;;;6.20;99.90;;;;;;5052768;28;20509;-71
2021/11/17 03:50:07;;;;;;;33.42;27.48;;;6.20;99.90;;;;;;5054823;28;20040;-71
2021/11/17 03:53:08;;;;;;;31.88;27.02;;;6.20;99.90;;;;;;5061670;28;20037;-71
2021/11/17 03:55:53;;;;;;;33.88;26.83;;;6.20;99.90;;;;;;5031418;28;20049;-71
2021/11/17 03:58:27;;;;;;;29.77;26.27;;;6.10;99.90;;;;;;5053250;28;20033;-75
2021/11/17 04:01:12;;;;;;;30.10;26.90;;;6.10;99.90;;;;;;5053514;28;20063;-71
2021/11/17 04:03:52;;;;;;;28.08;24.17;;;6.10;99.90;;;;;;5053557;28;20106;-71
2021/11/17 04:06:31;;;;;;;27.02;20.88;;;6.10;99.90;;;;;;5045030;28;20045;-72
2021/11/17 04:09:12;;;;;;;16.92;13.95;;;6.10;99.90;;;;;;5040869;28;20040;-71
2021/11/17 04:11:48;;;;;;;11.43;8.95;;;6.30;99.90;;;;;;5053055;28;20147;-71
2021/11/17 04:14:51;;;;;;;11.25;9.07;;;6.30;99.90;;;;;;5053460;28;20045;-71
2021/11/17 04:17:39;;;;;;;14.63;8.30;;;6.30;99.90;;;;;;5002080;28;20040;-71
2021/11/17 04:20:32;;;;;;;11.30;9.23;;;6.30;99.90;;;;;;5052553;28;20033;-71
2021/11/17 04:23:22;;;;;;;11.35;8.43;;;6.40;99.90;;;;;;5053298;28;20471;-71
2021/11/17 04:26:07;;;;;;;9.20;7.63;;;6.40;99.90;;;;;;5053600;28;20040;-71
2021/11/17 04:28:40;;;;;;;11.10;8.40;;;6.30;99.90;;;;;;5053644;28;20044;-71
2021/11/17 04:31:34;;;;;;;9.98;8.60;;;6.30;99.90;;;;;;5039500;28;20044;-71
2021/11/17 04:34:15;;;;;;;10.18;9.18;;;6.40;99.90;;;;;;5066832;28;20048;-71
2021/11/17 04:37:11;;;;;;;13.48;10.05;;;6.40;99.90;;;;;;5052070;28;20040;-71
2021/11/17 04:39:44;;;;;;;13.27;10.25;;;6.40;99.90;;;;;;5040304;28;20040;-71
2021/11/17 04:42:13;;;;;;;10.60;9.38;;;6.40;99.90;;;;;;5052675;28;20048;-71
2021/11/17 04:45:00;;;;;;;8.90;8.10;;;6.40;99.90;;;;;;5052258;28;20044;-71
2021/11/17 04:47:45;;;;;;;6.65;6.05;;;6.40;99.90;;;;;;5035217;28;20040;-71
2021/11/17 04:50:33;;;;;;;6.80;6.03;;;6.40;99.80;;;;;;5052526;28;20390;-71
2021/11/17 04:53:13;;;;;;;4.68;4.22;;;6.40;98.50;;;;;;5052368;28;20044;-71
2021/11/17 04:55:39;;;;;;;3.22;2.67;;;6.40;96.60;;;;;;5052369;28;20033;-71
2021/11/17 04:58:08;;;;;;;6.00;2.75;;;6.40;95.40;;;;;;5052720;28;20032;-73
2021/11/17 05:01:08;;;;;;;3.83;3.25;;;6.40;94.80;;;;;;5062603;28;20040;-71
2021/11/17 05:03:53;;;;;;;4.75;3.47;;;6.40;94.40;;;;;;5053185;28;20040;-71
2021/11/17 05:06:28;;;;;;;8.55;4.30;;;6.40;95.60;;;;;;5052445;28;20032;-72
2021/11/17 05:09:42;;;;;;;9.05;5.85;;;6.40;95.50;;;;;;5052595;28;20036;-71
2021/11/17 05:12:20;;;;;;;6.65;5.03;;;6.30;95.40;;;;;;5037737;28;20036;-72
2021/11/17 05:14:55;;;;;;;4.82;4.32;;;6.30;95.80;;;;;;5061787;28;20033;-71
2021/11/17 05:17:24;;;;;;;5.05;4.47;;;6.30;96.00;;;;;;5052064;28;20029;-75
2021/11/17 05:20:19;;;;;;;6.05;4.03;;;6.30;96.60;;;;;;5048963;28;20048;-71
2021/11/17 05:23:43;;;;;;;5.05;3.92;;;6.30;95.70;;;;;;5034852;28;20483;-72
2021/11/17 05:26:27;;;;;;;8.32;3.90;;;6.30;95.60;;;;;;4960603;28;20031;-71
2021/11/17 05:29:15;;;;;;;4.07;3.70;;;6.40;94.40;;;;;;4965072;28;20058;-71
2021/11/17 05:32:02;;;;;;;6.15;4.18;;;6.40;94.50;;;;;;4970277;28;20051;-72
2021/11/17 05:34:49;;;;;;;4.63;4.00;;;6.40;94.50;;;;;;4970975;28;20035;-72
2021/11/17 05:37:24;;;;;;;4.00;3.53;;;6.30;94.40;;;;;;4970760;28;20612;-74
2021/11/17 05:40:02;;;;;;;4.70;3.97;;;6.30;94.60;;;;;;4970981;28;20038;-74
2021/11/17 05:42:34;;;;;;;4.25;3.60;;;6.30;94.60;;;;;;4970727;28;20058;-74
2021/11/17 05:45:21;;;;;;;4.72;3.85;;;6.30;94.40;;;;;;4958531;28;20046;-74
2021/11/17 05:48:12;;;;;;;5.90;4.40;;;6.30;94.40;;;;;;4949171;28;20042;-75
2021/11/17 05:50:47;;;;;;;5.15;4.03;;;6.30;94.60;;;;;;4961404;28;20436;-72
2021/11/17 05:53:56;;;;;;;5.03;4.22;;;6.30;95.20;;;;;;4960215;28;20046;-73
2021/11/17 05:56:54;;;;;;;6.10;4.53;;;6.40;94.40;;;;;;4979861;28;20041;-76
2021/11/17 05:59:47;;;;;;;9.88;4.47;;;6.30;95.00;;;;;;5056282;28;20020;-73
2021/11/17 06:02:19;;;;;;;8.02;4.57;;;6.30;94.70;;;;;;5058427;28;20056;-73
2021/11/17 06:04:45;;;;;;;4.47;3.97;;;6.30;94.80;;;;;;5034144;28;20033;-73
2021/11/17 06:07:11;;;;;;;7.20;4.18;;;6.40;94.80;;;;;;5036390;28;20037;-73
2021/11/17 06:09:37;;;;;;;6.30;4.60;;;6.40;94.70;;;;;;5063783;28;20040;-73
2021/11/17 06:12:29;;;;;;;3.58;2.67;;;6.40;93.20;;;;;;5050114;28;20052;-73
2021/11/17 06:14:55;;;;;;;2.55;2.35;;;6.40;93.50;;;;;;5052885;28;20032;-72
2021/11/17 06:17:25;;;;;;;4.00;2.92;;;6.40;93.40;;;;;;5051651;28;20146;-76
2021/11/17 06:19:53;;;;;;;4.07;3.58;;;6.40;93.10;;;;;;5062251;28;20040;-72
2021/11/17 06:22:23;;;;;;;3.08;2.50;;;6.40;93.40;;;;;;5062057;28;20386;-73
2021/11/17 06:24:52;;;;;;;2.95;2.13;;;6.40;92.70;;;;;;5052225;28;20052;-72
2021/11/17 06:27:24;;;;;;;3.40;2.65;;;6.40;92.70;;;;;;5059640;28;20032;-73
2021/11/17 06:29:54;;;;;;;4.72;4.20;;;6.50;93.10;;;;;;5054510;28;20049;-75
2021/11/17 06:32:20;;;;;;;5.85;4.65;;;6.40;93.00;;;;;;5054515;28;20040;-75
2021/11/17 06:34:53;;;;;;;7.90;4.43;;;6.40;93.50;;;;;;5035386;28;20363;-75
2021/11/17 06:37:22;;;;;;;5.60;4.90;;;6.30;94.20;;;;;;5053635;28;20355;-75
2021/11/17 06:39:54;;;;;;;4.43;3.80;;;6.40;93.80;;;;;;5053118;28;20044;-75
2021/11/17 06:42:49;;;;;;;4.03;3.63;;;6.30;93.10;;;;;;5053513;28;20494;-76
2021/11/17 06:45:31;;;;;;;6.18;4.85;;;6.40;92.80;;;;;;5032726;28;20044;-74
2021/11/17 06:47:59;;;;;;;7.43;6.43;;;6.40;92.90;;;;;;5059800;28;20043;-76
2021/11/17 06:50:26;;;;;;;4.50;4.10;;;6.30;93.50;;;;;;5052773;28;20037;-76
2021/11/17 06:52:52;;;;;;;9.15;7.35;;;6.20;93.40;;;;;;5053951;28;20035;-73
2021/11/17 06:55:19;;;;;;;6.70;6.00;;;6.20;93.80;;;;;;5046192;28;20029;-73
2021/11/17 06:57:46;;;;;;;8.30;7.60;;;6.20;94.30;;;;;;5056861;28;20472;-72
2021/11/17 07:00:16;;;;;;;7.57;6.80;;;6.10;94.60;;;;;;5046023;28;20051;-75
2021/11/17 07:02:42;;;;;;;11.05;9.60;;;6.10;94.20;;;;;;5058885;28;20034;-73
2021/11/17 07:05:10;;;;;;;8.00;6.97;;;6.10;94.20;;;;;;5054148;28;20037;-74
2021/11/17 07:07:38;;;;;;;6.32;5.72;;;6.10;94.10;;;;;;5066983;28;20051;-74
2021/11/17 07:10:06;;;;;;;5.40;5.00;;;6.10;94.50;;;;;;5057988;28;20032;-74
2021/11/17 07:12:33;;;;;;;5.90;4.50;;;6.10;94.60;;;;;;5070754;28;20393;-74
2021/11/17 07:14:59;;;;;;;5.15;4.47;;;6.00;94.20;;;;;;5073491;28;20373;-74
2021/11/17 07:17:25;;;;;;;7.43;6.72;;;6.00;94.30;;;;;;5060778;28;20024;-75
2021/11/17 07:19:52;;;;;;;5.50;4.82;;;6.00;94.40;;;;;;5062538;28;20041;-71
2021/11/17 07:22:20;;;;;;;8.95;4.80;;;6.00;94.70;;;;;;5059822;28;20043;-71
2021/11/17 07:24:46;;;;;;;4.65;4.18;;;6.00;94.30;;;;;;5056414;28;20046;-73
2021/11/17 07:27:18;;;;;;;4.55;4.15;;;6.00;94.30;;;;;;5061721;28;20036;-71
2021/11/17 07:29:46;;;;;;;6.40;4.00;;;6.00;94.80;;;;;;5072577;28;20060;-71
2021/11/17 07:32:12;;;;;;;5.25;3.80;;;6.00;94.70;;;;;;5062614;28;20029;-72
2021/11/17 07:34:39;;;;;;;4.40;4.05;;;6.00;94.60;;;;;;5056037;28;20509;-71
2021/11/17 07:37:05;;;;;;;4.28;3.78;;;6.00;94.80;;;;;;5036311;28;20033;-73
2021/11/17 07:39:31;;;;;;;4.75;3.55;;;6.00;94.60;;;;;;5053702;28;20033;-71
2021/11/17 07:41:58;;;;;;;4.07;3.67;;;5.90;94.30;;;;;;5054264;28;20041;-72
2021/11/17 07:44:25;;;;;;;4.57;3.88;;;5.90;94.70;;;;;;5061104;28;20036;-72
2021/11/17 07:46:54;;;;;;;5.50;4.32;;;5.90;94.80;;;;;;5062072;28;20037;-71
2021/11/17 07:49:21;;;;;;;8.13;3.92;;;5.90;94.80;;;;;;5053567;28;20047;-73
2021/11/17 07:51:48;;;;;;;6.75;6.15;;;6.00;94.80;;;;;;5071898;28;20408;-74
2021/11/17 07:54:14;;;;;;;6.85;5.63;;;6.00;95.10;;;;;;5053720;28;20067;-73
2021/11/17 07:56:42;;;;;;;4.38;3.97;;;6.00;94.90;;;;;;5062578;28;20036;-72
2021/11/17 07:59:13;;;;;;;4.13;3.72;;;6.20;95.20;;;;;;5063020;28;20033;-73
2021/11/17 08:01:39;;;;;;;3.15;2.65;;;6.30;94.30;;;;;;5055698;28;20041;-72
2021/11/17 08:04:08;;;;;;;3.65;3.35;;;6.20;94.10;;;;;;5066863;28;20485;-73
2021/11/17 08:06:34;;;;;;;3.72;3.42;;;6.10;94.60;;;;;;5053575;28;20055;-73
2021/11/17 08:09:02;;;;;;;3.92;3.42;;;6.10;94.70;;;;;;5053469;28;20429;-73
2021/11/17 08:11:28;;;;;;;3.85;3.20;;;6.10;94.60;;;;;;5059546;28;20036;-73
2021/11/17 08:13:54;;;;;;;4.55;4.10;;;6.10;94.80;;;;;;5056730;28;20028;-73
2021/11/17 08:16:21;;;;;;;3.80;3.38;;;6.20;94.70;;;;;;5065548;28;20076;-73
2021/11/17 08:18:50;;;;;;;4.13;3.67;;;6.10;94.90;;;;;;5067165;28;20032;-73
2021/11/17 08:21:17;;;;;;;6.13;3.28;;;6.20;94.90;;;;;;5056028;28;20382;-74
2021/11/17 08:23:43;;;;;;;3.92;3.40;;;6.20;95.00;;;;;;5052918;28;20354;-77
2021/11/17 08:26:17;;;;;;;5.50;3.80;;;6.10;95.60;;;;;;5052846;28;20382;-77
2021/11/17 08:28:43;;;;;;;4.00;3.38;;;6.10;95.90;;;;;;5053892;28;20213;-81
2021/11/17 08:31:12;;;;;;;5.22;4.60;;;6.10;96.30;;;;;;5072367;28;20028;-75
2021/11/17 08:33:41;;;;;;;4.45;4.05;;;6.20;96.60;;;;;;5085552;28;20036;-73
2021/11/17 08:36:07;;;;;;;6.40;3.78;;;6.20;96.20;;;;;;5072768;28;20028;-73
2021/11/17 08:38:36;;;;;;;6.90;4.75;;;6.10;95.90;;;;;;5072689;28;20458;-72
2021/11/17 08:41:08;;;;;;;5.85;5.22;;;6.00;96.50;;;;;;5072870;28;20036;-73
2021/11/17 08:43:36;;;;;;;5.18;4.40;;;6.00;97.10;;;;;;5077211;28;20063;-73
2021/11/17 08:46:03;;;;;;;5.57;4.68;;;6.00;97.40;;;;;;5076392;28;20033;-74
2021/11/17 08:48:35;;;;;;;6.40;4.13;;;5.90;97.60;;;;;;5092362;28;20043;-73
2021/11/17 08:51:05;;;;;;;6.82;4.07;;;5.90;98.70;;;;;;5076340;28;20056;-74
2021/11/17 08:53:34;;;;;;;20.70;4.40;;;5.90;98.60;;;;;;5071757;28;20032;-74
2021/11/17 08:56:07;;;;;;;5.63;4.25;;;5.90;99.20;;;;;;5089473;28;20481;-72
2021/11/17 08:58:34;;;;;;;7.75;3.97;;;6.00;99.30;;;;;;5072098;28;20024;-73
2021/11/17 09:01:02;;;;;;;5.20;3.92;;;6.00;99.10;;;;;;5072292;28;20461;-73
2021/11/17 09:03:28;;;;;;;3.95;3.55;;;6.00;99.10;;;;;;5071739;28;20398;-73
2021/11/17 09:05:58;;;;;;;9.65;3.97;;;5.90;99.10;;;;;;5079837;28;20033;-73
2021/11/17 09:08:25;;;;;;;7.32;4.68;;;5.90;99.40;;;;;;5072840;28;20025;-77
2021/11/17 09:10:55;;;;;;;6.38;5.65;;;6.10;99.40;;;;;;5072449;28;20466;-73
2021/11/17 09:13:22;;;;;;;4.20;3.80;;;6.20;99.40;;;;;;5072175;28;20028;-73
2021/11/17 09:15:51;;;;;;;5.05;3.53;;;6.20;98.50;;;;;;5071823;28;20024;-72
2021/11/17 09:18:19;;;;;;;3.30;3.00;;;6.30;98.50;;;;;;5067972;28;20036;-72
2021/11/17 09:20:47;;;;;;;3.25;2.95;;;6.20;97.20;;;;;;5084129;28;20570;-72
2021/11/17 09:23:14;;;;;;;5.50;3.58;;;6.20;96.90;;;;;;5090281;28;20047;-72
2021/11/17 09:25:42;;;;;;;3.88;2.65;;;6.10;97.10;;;;;;5072255;28;20028;-73
2021/11/17 09:28:10;;;;;;;3.42;3.13;;;6.00;97.10;;;;;;5069598;28;20512;-72
2021/11/17 09:30:39;;;;;;;6.90;4.78;;;6.10;97.60;;;;;;5079796;28;20028;-73
2021/11/17 09:33:08;;;;;;;8.07;7.32;;;6.20;97.80;;;;;;5080510;28;20029;-72
2021/11/17 09:35:36;;;;;;;4.45;3.75;;;6.30;97.60;;;;;;5078423;28;20032;-73
2021/11/17 09:38:05;;;;;;;3.33;2.58;;;6.40;96.50;;;;;;5082068;28;20047;-72
2021/11/17 09:40:47;;;;;;;15.98;11.75;;;6.30;95.80;;;;;;5078031;28;20043;-73
2021/11/17 09:43:18;;;;;;;8.07;6.60;;;6.40;96.80;;;;;;5075163;28;20047;-73
2021/11/17 09:45:47;;;;;;;36.92;27.70;;;6.60;97.00;;;;;;5072801;28;20386;-74
2021/11/17 09:48:18;;;;;;;19.98;14.73;;;6.60;97.00;;;;;;5079558;28;20477;-73
2021/11/17 09:50:46;;;;;;;;;;;6.60;97.20;;;;;;5073785;28;20032;-74
2021/11/17 09:53:19;;;;;;;25.73;15.38;;;6.60;97.60;;;;;;5077717;28;19908;-73
2021/11/17 09:56:07;;;;;;;10.48;7.93;;;6.70;97.40;;;;;;5078584;28;20028;-73
2021/11/17 09:58:41;;;;;;;8.10;6.32;;;6.60;96.90;;;;;;5077155;28;20039;-73
2021/11/17 10:01:25;;;;;;;13.98;12.55;;;6.60;96.60;;;;;;5081104;28;20062;-73
2021/11/17 10:03:52;;;;;;;12.98;9.38;;;6.70;96.80;;;;;;5080065;28;20044;-73
2021/11/17 10:14:29;;;;;;;12.48;10.25;;;7.20;96.00;;;;;;5078150;28;20492;-72
2021/11/17 10:16:57;;;;;;;6.32;5.45;;;7.30;95.10;;;;;;5075824;28;20028;-74
2021/11/17 10:19:33;;;;;;;7.00;6.30;;;7.30;95.10;;;;;;5079334;28;20028;-74
2021/11/17 10:22:13;;;;;;;6.68;5.60;;;7.40;94.50;;;;;;5080680;28;20032;-73
2021/11/17 10:24:50;;;;;;;8.00;7.15;;;7.40;94.70;;;;;;5078485;28;20043;-72
2021/11/17 10:27:26;;;;;;;5.80;5.25;;;7.50;95.20;;;;;;5074081;28;20036;-78
2021/11/17 10:30:06;;;;;;;5.47;3.70;;;7.60;93.60;;;;;;5070674;28;20041;-76
2021/11/17 10:32:44;;;;;;;4.30;3.90;;;7.60;93.60;;;;;;5077584;28;20036;-73
2021/11/17 10:35:24;;;;;;;8.45;5.70;;;7.50;93.30;;;;;;5079167;28;20469;-73
2021/11/17 10:38:22;;;;;;;4.40;3.78;;;7.40;93.30;;;;;;5081905;28;20036;-74
2021/11/17 10:40:56;;;;;;;5.60;4.10;;;7.40;93.50;;;;;;5087361;28;20024;-76
2021/11/17 10:43:36;;;;;;;5.35;4.90;;;7.30;93.70;;;;;;5089135;28;20051;-75
2021/11/17 10:46:09;;;;;;;8.90;4.43;;;7.20;93.70;;;;;;5083287;28;20032;-73
2021/11/17 10:48:49;;;;;;;3.88;3.10;;;7.20;93.70;;;;;;5076410;28;20032;-73
2021/11/17 10:51:25;;;;;;;3.90;2.67;;;7.20;93.60;;;;;;5079346;28;20047;-73
2021/11/17 10:53:55;;;;;;;4.40;3.05;;;7.10;93.30;;;;;;5079298;28;20040;-73
2021/11/17 10:56:24;;;;;;;8.57;5.70;;;7.10;93.70;;;;;;5075017;28;20031;-73
2021/11/17 10:58:54;;;;;;;21.70;17.08;;;7.20;93.20;;;;;;5081894;28;20468;-72
2021/11/17 11:01:30;;;;;;;12.70;7.65;;;7.20;92.80;;;;;;5091647;28;20051;-73
2021/11/17 11:04:14;;;;;;;4.10;3.70;;;7.30;92.20;;;;;;5103577;28;20035;-73
2021/11/17 11:06:54;;;;;;;6.25;3.70;;;7.30;92.50;;;;;;5095003;28;20385;-73
2021/11/17 11:09:52;;;;;;;8.23;4.25;;;7.40;92.30;;;;;;5079503;28;20033;-76
2021/11/17 11:12:19;;;;;;;2.58;2.05;;;7.40;92.20;;;;;;5074663;28;20024;-73
2021/11/17 11:14:53;;;;;;;4.22;2.47;;;7.30;91.70;;;;;;5074173;28;20032;-73
2021/11/17 11:17:29;;;;;;;4.13;2.38;;;7.30;91.50;;;;;;5074474;28;20028;-73
2021/11/17 11:20:24;;;;;;;2.47;1.80;;;7.20;91.00;;;;;;5074267;28;20040;-76
2021/11/17 11:23:03;;;;;;;2.80;2.20;;;7.20;91.00;;;;;;5071827;28;20053;-73
2021/11/17 11:26:06;;;;;;;6.90;3.15;;;7.30;90.70;;;;;;5082019;28;20024;-82
2021/11/17 11:28:47;;;;;;;3.63;2.50;;;7.50;91.40;;;;;;5092361;28;20059;-75
2021/11/17 11:31:18;;;;;;;3.65;2.25;;;7.80;91.10;;;;;;5111805;28;20031;-74
2021/11/17 11:33:55;;;;;;;1.88;1.48;;;7.90;89.70;;;;;;5075038;28;20048;-74
2021/11/17 11:36:21;;;;;;;2.33;1.85;;;7.80;88.30;;;;;;5076695;28;20025;-74
2021/11/17 11:38:51;;;;;;;4.57;2.13;;;7.70;87.60;;;;;;5073931;28;20245;-74
2021/11/17 11:41:35;;;;;;;3.08;2.03;;;7.80;87.70;;;;;;5088402;28;20043;-74
2021/11/17 11:44:26;;;;;;;3.47;2.90;;;7.90;86.90;;;;;;5076693;28;20501;-75
2021/11/17 11:46:59;;;;;;;2.95;2.30;;;8.10;86.30;;;;;;5076783;28;20039;-74
2021/11/17 11:49:44;;;;;;;10.45;7.32;;;8.10;85.40;;;;;;5081178;28;20036;-74
2021/11/17 11:52:22;;;;;;;6.13;3.15;;;8.30;85.10;;;;;;5081639;28;20491;-73
2021/11/17 11:54:51;;;;;;;7.82;6.80;;;8.40;85.20;;;;;;5081083;28;20047;-73
2021/11/17 11:58:05;;;;;;;6.20;2.30;;;8.70;84.70;;;;;;5081966;28;20032;-73
2021/11/17 12:00:36;;;;;;;9.80;6.78;;;8.70;86.20;;;;;;5060185;28;20041;-77
2021/11/17 12:03:09;;;;;;;2.80;2.00;;;8.70;84.50;;;;;;5085876;28;20043;-74
2021/11/17 12:05:39;;;;;;;3.05;2.38;;;8.60;83.10;;;;;;5083999;28;20032;-73
2021/11/17 12:08:23;;;;;;;5.63;2.40;;;8.50;83.80;;;;;;5080920;28;20385;-75
2021/11/17 12:11:11;;;;;;;2.53;2.00;;;8.60;84.90;;;;;;5076018;28;20037;-73
2021/11/17 12:13:42;;;;;;;3.42;2.40;;;8.60;84.60;;;;;;5076742;28;20070;-73
2021/11/17 12:16:14;;;;;;;2.00;1.80;;;8.60;84.70;;;;;;5081604;28;20044;-75
2021/11/17 12:18:54;;;;;;;2.33;1.83;;;8.60;83.70;;;;;;5087528;28;20035;-73
2021/11/17 12:21:28;;;;;;;4.85;2.58;;;8.60;83.30;;;;;;5080158;28;20378;-73
2021/11/17 12:24:09;;;;;;;5.72;2.10;;;8.70;83.30;;;;;;5082622;28;20044;-75
2021/11/17 12:26:37;;;;;;;;;;;8.80;82.00;;;;;;5072593;28;20040;-74
2021/11/17 12:29:14;;;;;;;3.58;1.75;;;8.80;82.90;;;;;;5071417;28;19916;-74
2021/11/17 12:32:06;;;;;;;3.47;2.00;;;8.80;82.40;;;;;;5082819;28;20040;-74
2021/11/17 12:34:54;;;;;;;3.75;2.13;;;8.80;82.30;;;;;;5074173;28;20048;-77
2021/11/17 12:37:44;;;;;;;4.55;2.00;;;8.90;82.30;;;;;;5072155;28;20040;-75
2021/11/17 12:40:19;;;;;;;4.82;3.08;;;8.90;82.80;;;;;;5073228;28;20032;-75
2021/11/17 12:42:55;;;;;;;4.15;2.33;;;8.90;82.40;;;;;;5072710;28;20044;-75
2021/11/17 12:45:27;;;;;;;3.03;2.20;;;8.90;82.20;;;;;;5085626;28;20472;-75
2021/11/17 12:48:20;;;;;;;3.70;1.80;;;8.90;82.30;;;;;;5077302;28;20039;-75
2021/11/17 12:51:07;;;;;;;2.53;1.83;;;8.70;82.10;;;;;;5079986;28;20474;-74
2021/11/17 12:53:38;;;;;;;3.42;2.17;;;8.60;83.60;;;;;;5088087;28;20028;-76
2021/11/17 12:56:13;;;;;;;4.93;2.67;;;8.60;83.70;;;;;;5074837;28;20036;-74
2021/11/17 12:58:43;;;;;;;3.20;2.22;;;8.60;83.10;;;;;;5072484;28;20029;-75
2021/11/17 13:01:42;;;;;;;1.55;1.23;;;8.50;83.30;;;;;;5071231;28;20044;-75
2021/11/17 13:04:14;;;;;;;3.42;2.88;;;8.50;83.90;;;;;;5086615;28;20043;-76
2021/11/17 13:06:40;;;;;;;5.45;3.80;;;8.60;84.70;;;;;;5071882;28;20478;-74
2021/11/17 13:09:20;;;;;;;6.18;3.40;;;8.50;83.40;;;;;;5073382;28;20036;-75
2021/11/17 13:12:02;;;;;;;7.83;4.43;;;8.50;84.50;;;;;;5072122;28;20035;-74
2021/11/17 13:14:43;;;;;;;8.05;6.43;;;8.40;85.00;;;;;;5072269;28;20051;-76
2021/11/17 13:17:24;;;;;;;19.30;12.40;;;8.40;84.50;;;;;;5089891;28;20036;-73
2021/11/17 13:20:13;;;;;;;3.90;3.45;;;8.40;83.70;;;;;;5071714;28;20029;-74
2021/11/17 13:22:45;;;;;;;11.38;4.88;;;8.50;84.80;;;;;;5074572;28;20511;-73
2021/11/17 13:25:21;;;;;;;8.73;7.00;;;8.60;84.60;;;;;;5081491;28;20024;-74
2021/11/17 13:27:56;;;;;;;6.40;5.28;;;8.50;84.30;;;;;;5070149;28;20040;-74
2021/11/17 13:30:46;;;;;;;8.32;7.55;;;8.50;84.30;;;;;;5062222;28;20031;-74
2021/11/17 13:33:29;;;;;;;10.75;6.22;;;8.50;84.50;;;;;;5060485;28;20138;-74
2021/11/17 13:36:07;;;;;;;9.68;7.82;;;8.50;85.30;;;;;;5043417;28;20520;-74
2021/11/17 13:38:36;;;;;;;8.13;6.90;;;8.50;84.50;;;;;;5059513;28;20037;-78
2021/11/17 13:41:09;;;;;;;8.25;6.03;;;8.50;85.40;;;;;;5058500;28;20484;-74
2021/11/17 13:43:38;;;;;;;8.02;4.68;;;8.40;87.00;;;;;;5061918;28;20478;-75
2021/11/17 13:46:09;;;;;;;14.32;6.38;;;8.30;86.20;;;;;;5064048;28;20989;-74
2021/11/17 13:48:38;;;;;;;9.13;4.30;;;8.20;86.50;;;;;;5059895;28;20417;-76
2021/11/17 13:51:06;;;;;;;8.10;3.95;;;8.10;86.90;;;;;;5044217;28;20056;-74
2021/11/17 13:53:32;;;;;;;6.32;4.38;;;8.10;87.60;;;;;;5051216;28;20041;-74
2021/11/17 13:56:08;;;;;;;6.18;4.55;;;8.00;87.50;;;;;;5051975;28;20044;-74
2021/11/17 13:58:34;;;;;;;6.00;4.55;;;8.00;87.80;;;;;;5051920;28;20032;-74
2021/11/17 14:01:03;;;;;;;9.07;5.32;;;8.10;89.50;;;;;;5052525;28;20056;-74
2021/11/17 14:03:31;;;;;;;8.68;4.00;;;8.10;88.40;;;;;;5055783;28;20043;-74
2021/11/17 14:06:03;;;;;;;6.68;4.30;;;8.10;89.10;;;;;;5059092;28;20048;-75
2021/11/17 14:08:31;;;;;;;7.32;4.57;;;8.20;88.20;;;;;;5052009;28;20036;-75
2021/11/17 14:10:58;;;;;;;4.75;4.03;;;8.20;88.00;;;;;;5051593;28;20032;-75
2021/11/17 14:13:25;;;;;;;4.78;3.92;;;8.20;88.50;;;;;;5034452;28;20032;-76
2021/11/17 14:15:52;;;;;;;7.82;4.07;;;8.20;88.20;;;;;;5042541;28;20035;-75
2021/11/17 14:18:18;;;;;;;7.07;4.43;;;8.10;87.90;;;;;;5068270;28;20033;-75
2021/11/17 14:20:48;;;;;;;6.00;4.80;;;8.20;88.90;;;;;;5055265;28;20366;-74
2021/11/17 14:23:16;;;;;;;6.57;4.47;;;8.20;89.00;;;;;;5055806;28;20048;-73
2021/11/17 14:25:44;;;;;;;7.22;3.55;;;8.20;88.10;;;;;;5055707;28;20037;-74
2021/11/17 14:28:17;;;;;;;7.55;3.83;;;8.20;88.30;;;;;;5060954;28;20036;-74
2021/11/17 14:30:50;;;;;;;6.30;4.35;;;8.20;89.00;;;;;;5068978;28;20063;-74
2021/11/17 14:33:21;;;;;;;4.30;3.75;;;8.20;88.30;;;;;;5055219;28;20041;-74
2021/11/17 14:35:48;;;;;;;9.52;7.57;;;8.20;88.20;;;;;;5069494;28;20382;-74
2021/11/17 14:38:18;;;;;;;6.20;5.45;;;8.20;87.70;;;;;;5056429;28;20041;-75
2021/11/17 14:40:47;;;;;;;9.10;7.33;;;8.20;88.10;;;;;;5068602;28;20028;-74
2021/11/17 14:43:15;;;;;;;9.15;5.82;;;8.20;88.00;;;;;;5072109;28;20303;-74
2021/11/17 14:45:41;;;;;;;6.90;4.78;;;8.30;87.80;;;;;;5045314;28;20040;-72
2021/11/17 14:48:08;;;;;;;6.10;5.50;;;8.30;87.60;;;;;;5058943;28;20032;-73
2021/11/17 14:50:38;;;;;;;6.95;5.22;;;8.40;88.10;;;;;;5064177;28;20370;-77
2021/11/17 14:53:06;;;;;;;4.82;3.42;;;8.30;87.40;;;;;;5059225;28;20029;-73
2021/11/17 14:55:33;;;;;;;7.97;4.70;;;8.30;87.00;;;;;;5055132;28;20029;-75
2021/11/17 14:57:59;;;;;;;3.90;3.10;;;8.30;87.70;;;;;;5055363;28;20469;-73
2021/11/17 15:00:34;;;;;;;6.15;3.75;;;8.30;86.60;;;;;;5055229;28;20033;-73
2021/11/17 15:03:00;;;;;;;7.53;4.90;;;8.30;86.90;;;;;;5060323;28;20100;-73
2021/11/17 15:05:27;;;;;;;8.90;7.13;;;8.40;86.90;;;;;;5072502;28;20043;-73
2021/11/17 15:07:54;;;;;;;9.32;5.28;;;8.40;86.80;;;;;;5049460;28;20056;-75
2021/11/17 15:10:21;;;;;;;6.63;4.32;;;8.30;86.90;;;;;;5062007;28;20394;-72
2021/11/17 15:12:48;;;;;;;4.90;3.95;;;8.30;87.50;;;;;;5060331;28;20359;-71
2021/11/17 15:15:19;;;;;;;5.82;4.72;;;8.30;87.80;;;;;;5054298;28;20033;-72
2021/11/17 15:17:45;;;;;;;6.32;4.45;;;8.30;88.20;;;;;;5074077;28;20033;-72
2021/11/17 15:20:12;;;;;;;30.88;18.80;;;8.20;88.30;;;;;;5055261;28;20032;-71
2021/11/17 15:22:41;;;;;;;20.70;15.32;;;8.20;89.00;;;;;;5046701;28;20039;-72
2021/11/17 15:25:20;;;;;;;51.38;39.28;;;8.20;88.50;;;;;;5074122;28;20414;-72
2021/11/17 15:28:02;;;;;;;15.40;12.63;;;8.30;88.50;;;;;;5053195;28;20045;-72
2021/11/17 15:30:48;;;;;;;12.90;10.13;;;8.30;88.50;;;;;;5053927;28;20044;-72
2021/11/17 15:33:15;;;;;;;7.22;5.43;;;8.10;88.90;;;;;;5070132;28;20040;-72
2021/11/17 15:35:43;;;;;;;7.10;6.38;;;8.10;89.00;;;;;;5054021;28;20029;-72
2021/11/17 15:38:10;;;;;;;7.00;5.25;;;8.00;89.40;;;;;;5036861;28;20044;-72
2021/11/17 15:40:42;;;;;;;6.28;5.25;;;8.00;90.10;;;;;;5053894;28;20033;-73
2021/11/17 15:43:09;;;;;;;4.85;4.45;;;8.00;90.50;;;;;;5054453;28;20043;-72
2021/11/17 15:45:35;;;;;;;6.45;5.80;;;7.90;90.60;;;;;;5053428;28;20497;-73
2021/11/17 15:48:03;;;;;;;7.70;5.47;;;8.00;90.80;;;;;;5060375;28;20029;-72
2021/11/17 15:50:43;;;;;;;6.82;6.13;;;8.00;90.90;;;;;;5068665;28;20397;-72
2021/11/17 15:53:09;;;;;;;7.35;5.72;;;7.90;90.60;;;;;;5063384;28;20496;-72
2021/11/17 15:55:35;;;;;;;9.88;5.15;;;7.90;91.00;;;;;;5067645;28;20029;-72
2021/11/17 15:58:03;;;;;;;6.80;5.72;;;7.90;90.90;;;;;;5053869;28;20032;-72
2021/11/17 16:00:32;;;;;;;9.60;6.25;;;7.90;91.10;;;;;;5054154;28;20036;-72
2021/11/17 16:02:59;;;;;;;7.75;4.45;;;7.90;91.20;;;;;;5053638;28;20036;-72
2021/11/17 16:05:26;;;;;;;7.03;5.07;;;7.90;91.20;;;;;;5053964;28;20048;-72
2021/11/17 16:07:52;;;;;;;6.80;5.25;;;7.80;91.70;;;;;;5053303;28;20029;-72
2021/11/17 16:10:21;;;;;;;6.72;5.38;;;7.80;92.40;;;;;;5053887;28;20035;-73